Chicago Rockford International Airport
KRFD : now visible

Airfield :











YOU CAN JOIN US ON...

 
LOGIN :

Register | Disclaimer

   EN    FR    IT 

 









Legend :    VFR   Marginal VFR   IFR   Intensive IFR   Very Intensive IFR
Visi :
Ceiling :
>= 8 km
>= 3000ft
5 to 8 km
1000 to 3000 ft
1500m to 5 km
500 to 1000 ft
800 to 1500m
200 to 500 ft
< 800m
< 200 ft
Symbols :   Thunderstorms  Fog  Heavy snow  Heavy precipitations  Wind > 20 kt






- Airport Elevation : 742 ft
- IATA code : RFD


KRFD - Chicago Rockford International

CURRENT METAR :
  • 071954Z 20016G25KT 10SM FEW035 25/16 A2963 RMK AO2 SLP030 T02500161

EXPIRED METARs :
  • 071854Z 21013G21KT 10SM BKN031 BKN039 24/16 A2966 RMK AO2 PK WND 20026/1830 SLP042 T02390161
  • 071826Z 21014G22KT 10SM BKN032 23/16 A2968 RMK AO2 T02330161
  • 071819Z 21013KT 10SM BKN029 BKN037 23/16 A2968 RMK AO2 T02330161
  • 071754Z 18013G18KT 10SM FEW024 23/17 A2970 RMK AO2 SLP053 T02330167 10233 20106 58034

TAF KRFD
Valid from the 07 at 19:00 until the 08 at 18:00 UTC


071904Z 0719/0818 23014G23KT P6SM SCT025 BKN035
FM080000 29008KT P6SM SCT035 BKN070
FM080400 36008KT P6SM FEW015
FM080900 VRB03KT 6SM BR SCT010
FM081500 24010KT P6SM SCT035 BKN100



MET'MAP, your aeronautical weather chart ! - Copyright ORBIFLY December 2007 - Disclaimer

ORBIFLY MET'MAP TEAM :

Programming & Development : Alexandra Zaïnal
Concept & original design : Baudouin d'Aumeries
Assistance for programming : Marc-Olivier Méhu
Technical & hardware support : Manuel Goepfert

Contact : metmap@orbifly.com




SOURCES & CREDITS :

   NOAA       Earth
Advisory